Share

Aeropuerto Internacional General Rafael Buelna, México

2:25 PM MDT en Abril 23, 2014 (GMT -0600)
Gen Rafael Buelna International (MMMZ) Alt 33 ft | 23.16 °N, 106.27 °W | Change Station

Current weather conditions updated 45 minutes ago

Clear
Despejado
84 ° F
Sensación térmica 85 ° F
N
14
Viento Variable Viento desde SO
Amanecer 6:37 AM
Atardecer 7:29 PM
Luna Creciente menguante

Hoy se prevé una temperatura muy similar a la de ayer.

Presión 29.82 pul
Visibilidad 12.0 Millas
Nubes Despejado
Índice de calor 85 ° F
Punto de rocío 63 ° F
Humedad 48%
Precipitaciones 0.00 pul
Espesor de la nieve No disponible.
UV 12 de una escala de 16
Polen No disponible.
Calidad del aire No disponible.
Flu Activity No disponible.
METAR MMMZ 231940Z 23012KT 12SM SKC 29/17 A2982

More Conditions Fewer Conditions

Presión 29.82 pul
Visibilidad 12.0 Millas
Nubes Despejado
Índice de calor 85 ° F
Punto de rocío 63 ° F
Humedad 48%
Precipitaciones 0.00 pul
Espesor de la nieve No disponible.
UV 12 de una escala de 16
Polen No disponible.
Calidad del aire No disponible.
Flu Activity No disponible.
METAR MMMZ 231940Z 23012KT 12SM SKC 29/17 A2982

More Conditions Fewer Conditions

10-Day Weather Forecast

Almanac

Astronomía

Apr. 23, 2014 Salida Puesta
Hora real 6:37 AM MDT 7:29 PM MDT
Crepúsculo civil 6:14 AM MDT 7:52 PM MDT
Crepúsculo náutico 5:46 AM MDT 8:20 PM MDT
Crepúsculo astronómico 5:19 AM MDT 8:48 PM MDT
Luna 2:30 AM MDT 2:19 PM MDT
Horas de luz 13h 38m
Horas de luz
12h 51m
Tomorrow will be 1m 12s longer.
Creciente menguante, 33% of the Moon is Illuminated
Hoy
Creciente menguante
Abr 29
Nueva
May 6
Cuarto creciente
May 14
Luna llena
May 21
Cuarto menguante

Extremos de hoy

Máximos del país Bajas del país

Community

  • Stunning Sunrise
    Stunning Sunrise
  • spring flowers
    spring flowers
  • Earth Day Spectrum Ove' Blue
    Earth Day Spectrum Ove' Blue
  • BARN B&W
    BARN B&W
  • April Sunset
    April Sunset

WunderPhotos

Upload Photos

1,704,402 ¡fotos cargadas!

WunderBlogs® & News

Nearby

Calidad del aire

Not available.

Grosos de nieve

Not available.

Temperaturas de aguas costeras

Lugar Temperatura
Sin partes meteorológicos de las estaciones

Actividad de terremotos

Ciudad Distance Mag. Tiempo y dato
No hay informes recientes de la actividad sísmica.
Magnitud mínima muestra es 2,5.

Estaciones meteorológicas cercanas

Ubicación de la estación Temp. Índice de calor Punto de rocío Humedad Viento Precip. Alt Actualizado Tipo
THE LIDO - EL CENTRO - MAZATLAN, Mazatlan 77.6 ° F 80 ° F 75 ° F 91% OSO  a  11.0 mph 0.00 pul / hr 23 ft 2:12 PM MDT Normal
PLAYA ESCONDIDA., Mazatlan 80.2 ° F 85 ° F 75 ° F 85% ONO  a  7.0 mph 0.00 pul / hr 15 ft 2:11 PM MDT Normal

Show More Stations Show Fewer Stations

What do you think?

We're not finished. Please let us know what you like, what you don't like, and what you are still missing.